This is the latest recevied weather packets stored in our database for station/object N6XE-13. If no packets are shown the sender has not sent any weather packets the latest 10 day(s).
| Time | Temp. | Humidity | Pressure | Rain* | Wind** | Luminosity | Snow |
|---|---|---|---|---|---|---|---|
| 1778261405 | 21.11° C | 59% | 1020.2 hPa | 0 mm | - | - | - |
| 1778259605 | 20° C | 64% | 1020.2 hPa | 0 mm | - | - | - |
| 1778257805 | 18.33° C | 66% | 1020.3 hPa | 0 mm | - | - | - |
| 1778256005 | 17.78° C | 72% | 1020.3 hPa | 0 mm | - | - | - |
| 1778254205 | 16.11° C | 78% | 1020.3 hPa | 0 mm | - | - | - |
| 1778252405 | 14.44° C | 83% | 1020.1 hPa | 0 mm | - | - | - |
| 1778250605 | 13.33° C | 89% | 1019.9 hPa | 0 mm | - | - | - |
| 1778248806 | 11.67° C | 95% | 1019.6 hPa | 0 mm | - | - | - |
| 1778247006 | 11.67° C | 95% | 1019.5 hPa | 0 mm | - | - | - |
| 1778245206 | 11.67° C | 94% | 1019.5 hPa | 0 mm | - | - | - |
| 1778243406 | 11.67° C | 95% | 1019.1 hPa | 0 mm | - | - | - |
| 1778241605 | 12.22° C | 96% | 1019.3 hPa | 0 mm | - | - | - |
| 1778239806 | 12.22° C | 94% | 1019 hPa | 0 mm | - | - | - |
| 1778238005 | 11.67° C | 99% | 1019 hPa | 0 mm | - | - | - |
| 1778236205 | 12.22° C | 99% | 1018.8 hPa | 0 mm | - | - | - |
| 1778234405 | 12.22° C | 98% | 1018.8 hPa | 0 mm | - | - | - |
| 1778232605 | 12.78° C | 97% | 1018.6 hPa | 0 mm | - | - | - |
| 1778230805 | 12.78° C | 96% | 1018.7 hPa | 0 mm | - | - | - |
| 1778229005 | 12.78° C | 95% | 1018.8 hPa | 0 mm | - | - | - |
| 1778227205 | 13.89° C | 92% | 1018.6 hPa | 0 mm | - | - | - |
| 1778225405 | 14.44° C | 89% | 1018.4 hPa | 0 mm | - | - | - |
| 1778223606 | 15° C | 87% | 1018.2 hPa | 0 mm | - | - | - |
| 1778221806 | 15.56° C | 83% | 1018.2 hPa | 0 mm | - | - | - |
| 1778220006 | 16.11° C | 80% | 1018.3 hPa | 0 mm | - | - | - |
| 1778218206 | 17.22° C | 77% | 1018.3 hPa | 0 mm | - | - | - |
* Rain latest hour (hover to see other rain measurements)
** Current wind speed in m/s (hover to see current wind gust speed)